Time;durP1;ratioP1;P1;durP2;ratioP2;P2;SDS_P1;SDS_P2;PMS_P1;PMS_P2;Temp;Humidity;BMP_temperature;BMP_pressure;BME280_temperature;BME280_humidity;BME280_pressure;Samples;Min_cycle;Max_cycle;Signal;HPM_P1;HPM_P2
2021/01/05 00:00:27;;;;;;;30.53;14.90;;;;;;;1.03;87.41;100965.41;5030742;28;20202;-66
2021/01/05 00:02:53;;;;;;;30.70;15.53;;;;;;;1.04;87.80;100970.63;5022181;28;20199;-65
2021/01/05 00:05:22;;;;;;;31.80;15.63;;;;;;;1.07;87.61;100968.84;5023396;28;20273;-63
2021/01/05 00:07:49;;;;;;;37.83;16.37;;;;;;;1.07;87.63;100960.97;5018027;28;20202;-64
2021/01/05 00:10:16;;;;;;;37.30;15.63;;;;;;;1.07;87.21;100974.09;5025457;28;20202;-64
2021/01/05 00:12:42;;;;;;;38.67;17.40;;;;;;;1.06;87.36;100970.59;5026912;28;20202;-62
2021/01/05 00:15:09;;;;;;;38.40;15.83;;;;;;;1.06;87.84;100970.59;5029356;28;20238;-63
2021/01/05 00:17:36;;;;;;;39.80;16.70;;;;;;;1.06;87.58;100967.97;5028572;28;20689;-63
2021/01/05 00:20:08;;;;;;;37.23;16.63;;;;;;;1.05;87.74;100968.88;5029551;28;20260;-63
2021/01/05 00:22:34;;;;;;;34.97;15.70;;;;;;;1.05;87.42;100963.63;5026557;28;20574;-63
2021/01/05 00:25:01;;;;;;;25.67;13.43;;;;;;;1.05;87.63;100968.88;5027749;28;20222;-62
2021/01/05 00:27:27;;;;;;;27.63;14.27;;;;;;;1.03;87.65;100968.03;5028328;28;20916;-63
2021/01/05 00:29:53;;;;;;;29.87;14.93;;;;;;;1.03;87.84;100970.66;5028952;28;20583;-64
2021/01/05 00:32:24;;;;;;;30.57;15.10;;;;;;;1.03;88.09;100965.41;5029342;28;20209;-60
2021/01/05 00:34:51;;;;;;;24.90;13.07;;;;;;;1.04;87.77;100967.13;5028989;28;20729;-63
2021/01/05 00:37:19;;;;;;;24.30;13.30;;;;;;;1.03;87.84;100961.03;5031275;28;20198;-64
2021/01/05 00:39:46;;;;;;;28.27;14.47;;;;;;;1.02;87.87;100956.69;5033437;28;20206;-66
2021/01/05 00:42:14;;;;;;;26.57;13.83;;;;;;;1.03;87.61;100954.91;5031690;28;20233;-64
2021/01/05 00:44:41;;;;;;;25.07;12.43;;;;;;;1.04;87.76;100957.50;5033861;28;20222;-66
2021/01/05 00:47:07;;;;;;;18.50;12.20;;;;;;;1.02;87.55;100959.31;5025298;28;20722;-63
2021/01/05 00:49:33;;;;;;;27.53;13.87;;;;;;;1.03;87.47;100960.16;5033288;28;20210;-63
2021/01/05 00:51:59;;;;;;;22.40;12.73;;;;;;;1.01;87.74;100952.31;5032683;28;20243;-63
2021/01/05 00:54:25;;;;;;;24.17;13.03;;;;;;;1.01;87.44;100951.47;5028684;28;20222;-63
2021/01/05 00:57:01;;;;;;;21.97;12.00;;;;;;;1.00;87.44;100955.84;5032122;28;20669;-62
2021/01/05 00:59:28;;;;;;;19.53;11.90;;;;;;;0.99;87.36;100950.63;5029270;28;20206;-62
2021/01/05 01:01:55;;;;;;;21.97;12.40;;;;;;;1.00;87.67;100957.59;5026115;28;20209;-66
2021/01/05 01:04:21;;;;;;;21.30;11.57;;;;;;;0.98;87.46;100960.25;5032252;28;20303;-64
2021/01/05 01:06:47;;;;;;;20.47;12.20;;;;;;;0.97;87.39;100953.28;5024271;28;20230;-63
2021/01/05 01:09:13;;;;;;;18.63;11.13;;;;;;;0.97;87.65;100950.66;5033186;28;20217;-63
2021/01/05 01:12:02;;;;;;;18.70;12.63;;;;;;;0.98;88.15;100955.00;5032435;28;20210;-63
2021/01/05 01:14:29;;;;;;;21.77;12.63;;;;;;;0.98;87.69;100951.50;5029632;28;20226;-64
2021/01/05 01:16:55;;;;;;;21.17;12.70;;;;;;;0.99;87.53;100953.25;5032745;28;20587;-64
2021/01/05 01:19:21;;;;;;;20.83;12.00;;;;;;;0.99;87.78;100946.25;5027527;28;20268;-63
2021/01/05 01:21:48;;;;;;;19.20;11.87;;;;;;;1.00;87.53;100954.97;5027943;28;20198;-63
2021/01/05 01:24:14;;;;;;;19.40;12.30;;;;;;;1.01;87.25;100951.47;5029017;28;20221;-63
2021/01/05 01:26:41;;;;;;;17.97;12.17;;;;;;;1.00;87.80;100961.09;5026112;28;20241;-65
2021/01/05 01:29:07;;;;;;;18.23;11.53;;;;;;;0.99;87.54;100954.09;5026370;28;20198;-65
2021/01/05 01:31:34;;;;;;;19.87;11.63;;;;;;;1.00;87.27;100954.97;5028080;28;20205;-64
2021/01/05 01:34:00;;;;;;;16.87;10.70;;;;;;;1.01;87.32;100956.69;5030516;28;20237;-64
2021/01/05 01:36:26;;;;;;;19.70;11.53;;;;;;;1.00;87.29;100954.97;5027908;28;20667;-64
2021/01/05 01:38:52;;;;;;;19.33;12.57;;;;;;;1.00;87.61;100963.72;5026046;28;20700;-64
2021/01/05 01:41:18;;;;;;;22.13;11.93;;;;;;;1.01;87.29;100967.19;5031884;28;20206;-64
2021/01/05 01:43:44;;;;;;;18.97;11.03;;;;;;;1.00;87.65;100965.47;5031855;28;20218;-62
2021/01/05 01:46:12;;;;;;;20.57;12.00;;;;;;;0.99;87.55;100964.59;5032739;28;20710;-64
2021/01/05 01:48:39;;;;;;;17.87;10.90;;;;;;;0.99;87.53;100961.97;5021992;28;20256;-63
2021/01/05 01:51:06;;;;;;;16.93;9.87;;;;;;;0.98;87.54;100970.72;5025835;28;20211;-64
2021/01/05 01:54:01;;;;;;;18.70;10.53;;;;;;;0.97;87.41;100961.13;5028054;28;20328;-63
2021/01/05 01:56:45;;;;;;;19.43;11.07;;;;;;;0.97;87.44;100953.28;5031112;28;20212;-63
2021/01/05 01:59:29;;;;;;;19.53;11.10;;;;;;;0.97;87.57;100965.50;5032168;28;20214;-63
2021/01/05 02:01:58;;;;;;;19.13;11.60;;;;;;;0.97;87.37;100960.28;5026141;28;20214;-62
2021/01/05 02:04:45;;;;;;;20.53;12.17;;;;;;;0.96;87.61;100948.06;5022631;28;20601;-61
2021/01/05 02:07:22;;;;;;;21.83;12.03;;;;;;;0.96;87.63;100953.28;5024774;28;20269;-63
2021/01/05 02:10:06;;;;;;;20.53;12.47;;;;;;;0.95;87.57;100949.81;5028774;28;20213;-62
2021/01/05 02:12:36;;;;;;;17.77;10.93;;;;;;;0.96;87.46;100954.16;5022479;28;20249;-64
2021/01/05 02:15:14;;;;;;;23.97;12.43;;;;;;;0.96;87.13;100948.06;5021551;28;20265;-62
2021/01/05 02:18:10;;;;;;;20.23;12.00;;;;;;;0.95;87.50;100949.81;5026315;28;20210;-64
2021/01/05 02:20:43;;;;;;;19.07;10.73;;;;;;;0.95;87.54;100956.81;5021728;28;20897;-63
2021/01/05 02:23:24;;;;;;;20.97;11.00;;;;;;;0.95;87.38;100955.06;5022801;28;20209;-63
2021/01/05 02:26:01;;;;;;;16.83;10.17;;;;;;;0.95;87.37;100954.19;5022323;28;20226;-64
2021/01/05 02:28:34;;;;;;;21.93;10.97;;;;;;;0.96;87.24;100955.91;5019327;28;20564;-64
2021/01/05 02:31:08;;;;;;;22.40;11.73;;;;;;;0.95;87.50;100960.28;5026559;28;20582;-62
2021/01/05 02:33:44;;;;;;;23.03;11.43;;;;;;;0.96;87.46;100953.28;5027909;28;20217;-64
2021/01/05 02:36:27;;;;;;;23.47;12.30;;;;;;;0.96;87.39;100955.91;5020365;28;20198;-64
2021/01/05 02:39:07;;;;;;;22.83;11.87;;;;;;;0.97;87.25;100957.66;5023184;28;20202;-61
2021/01/05 02:41:45;;;;;;;23.70;12.27;;;;;;;0.96;87.51;100946.28;5030540;28;20206;-62
2021/01/05 02:44:24;;;;;;;21.93;12.53;;;;;;;0.97;87.43;100949.78;5020958;28;20288;-63
2021/01/05 02:46:54;;;;;;;24.50;12.03;;;;;;;0.98;87.58;100956.75;5020758;28;20231;-64
2021/01/05 02:49:40;;;;;;;26.83;12.30;;;;;;;0.97;87.54;100948.03;5019665;28;20213;-63
2021/01/05 02:52:33;;;;;;;26.33;13.63;;;;;;;0.99;87.50;100958.50;5024860;28;20206;-63
2021/01/05 02:55:51;;;;;;;26.33;11.97;;;;;;;0.98;87.25;100952.38;5027397;28;20219;-65
2021/01/05 02:59:06;;;;;;;24.63;13.43;;;;;;;0.97;87.31;100953.28;4959874;28;20216;-66
2021/01/05 03:02:11;;;;;;;29.80;14.50;;;;;;;0.97;87.65;100949.78;4948383;28;20209;-61
2021/01/05 03:04:37;;;;;;;24.13;13.43;;;;;;;0.98;87.21;100954.13;5012157;28;20217;-65
2021/01/05 03:07:07;;;;;;;25.27;14.60;;;;;;;0.98;87.01;100957.63;5020442;28;20676;-64
2021/01/05 03:10:01;;;;;;;26.80;13.63;;;;;;;1.00;87.34;100957.59;5026739;28;20256;-64
2021/01/05 03:13:06;;;;;;;30.93;15.30;;;;;;;0.99;87.36;100958.50;5012605;28;20636;-64
2021/01/05 03:15:41;;;;;;;31.03;14.43;;;;;;;0.98;87.22;100956.75;5026970;28;20234;-64
2021/01/05 03:18:16;;;;;;;29.30;14.63;;;;;;;1.00;87.48;100965.47;5017741;28;20228;-63
2021/01/05 03:20:48;;;;;;;28.90;13.63;;;;;;;1.00;87.60;100958.47;5025451;28;20203;-61
2021/01/05 03:23:15;;;;;;;29.73;13.80;;;;;;;1.01;87.63;100957.56;5021830;28;20203;-63
2021/01/05 03:25:45;;;;;;;26.23;13.13;;;;;;;1.01;87.39;100956.69;5024653;28;20222;-64
2021/01/05 03:28:16;;;;;;;30.13;14.50;;;;;;;1.01;87.68;100959.31;5020936;28;20206;-63
2021/01/05 03:30:46;;;;;;;29.90;13.83;;;;;;;1.00;87.01;100950.59;5028415;28;20199;-64
2021/01/05 03:33:13;;;;;;;36.30;16.00;;;;;;;1.01;87.63;100954.06;5030767;28;20198;-65
2021/01/05 03:35:39;;;;;;;27.43;13.80;;;;;;;1.01;87.64;100957.56;5028683;28;20263;-61
2021/01/05 03:38:05;;;;;;;24.67;12.97;;;;;;;1.02;87.67;100961.06;5031154;28;20202;-63
2021/01/05 03:40:31;;;;;;;26.43;13.50;;;;;;;1.01;87.26;100949.69;5029328;28;20678;-64
2021/01/05 03:42:57;;;;;;;28.33;13.93;;;;;;;0.99;87.35;100954.09;5028917;28;20209;-64
2021/01/05 03:45:25;;;;;;;28.63;14.27;;;;;;;1.00;87.76;100961.09;5022249;28;20230;-65
2021/01/05 03:47:53;;;;;;;29.43;14.07;;;;;;;1.00;87.16;100947.09;5029691;28;20602;-63
2021/01/05 03:50:19;;;;;;;32.80;14.53;;;;;;;0.99;87.52;100950.63;5030151;28;20232;-63
2021/01/05 03:52:46;;;;;;;31.63;14.93;;;;;;;0.99;87.83;100948.00;5028021;28;20206;-64
2021/01/05 03:55:13;;;;;;;34.27;15.40;;;;;;;0.98;87.79;100947.13;5021894;28;22082;-64
2021/01/05 03:57:39;;;;;;;35.53;15.80;;;;;;;0.99;87.46;100937.50;5029526;28;20195;-64
2021/01/05 04:00:07;;;;;;;32.67;16.27;;;;;;;1.00;87.62;100944.47;5029762;28;20209;-62
2021/01/05 04:02:33;;;;;;;37.33;16.70;;;;;;;1.01;87.84;100941.84;5028939;28;20203;-63
2021/01/05 04:05:00;;;;;;;37.60;17.20;;;;;;;1.00;87.27;100937.47;5028571;28;20248;-64
2021/01/05 04:07:26;;;;;;;33.13;16.23;;;;;;;1.02;87.26;100947.94;5030157;28;20271;-64
2021/01/05 04:09:52;;;;;;;31.90;15.90;;;;;;;1.01;87.70;100952.31;5028922;28;20289;-63
2021/01/05 04:12:18;;;;;;;32.90;15.73;;;;;;;1.02;87.97;100955.81;5027771;28;20210;-64
2021/01/05 04:14:44;;;;;;;29.50;14.83;;;;;;;1.02;88.00;100958.44;5028239;28;20340;-63
2021/01/05 04:17:11;;;;;;;30.93;14.80;;;;;;;1.03;87.39;100954.91;5031075;28;20264;-64
2021/01/05 04:19:37;;;;;;;42.37;15.80;;;;;;;1.01;87.70;100952.31;5030341;28;20675;-64
2021/01/05 04:22:03;;;;;;;37.07;15.60;;;;;;;1.01;87.57;100949.69;5028834;28;20202;-63
2021/01/05 04:24:29;;;;;;;35.07;16.83;;;;;;;1.02;87.63;100946.19;5030334;28;20218;-62
2021/01/05 04:26:56;;;;;;;34.07;16.20;;;;;;;1.01;87.79;100943.59;5029427;28;20280;-63
2021/01/05 04:29:22;;;;;;;33.47;16.47;;;;;;;1.02;88.08;100940.94;5029635;28;20202;-63
2021/01/05 04:31:48;;;;;;;37.93;17.03;;;;;;;1.04;87.96;100954.03;5027872;28;20222;-62
2021/01/05 04:34:15;;;;;;;36.50;16.63;;;;;;;1.03;87.99;100957.53;5029143;28;20752;-63
2021/01/05 04:36:42;;;;;;;36.13;16.17;;;;;;;1.01;87.92;100954.94;5030578;28;20198;-64
2021/01/05 04:39:09;;;;;;;35.50;16.40;;;;;;;1.02;87.88;100961.91;5028158;28;20252;-65
2021/01/05 04:41:43;;;;;;;41.33;17.50;;;;;;;1.02;88.01;100963.69;5029132;28;20259;-64
2021/01/05 04:44:14;;;;;;;37.80;17.13;;;;;;;1.02;87.99;100961.91;5028138;28;20252;-63
2021/01/05 04:46:56;;;;;;;36.73;17.00;;;;;;;1.06;88.02;100956.63;5031294;28;20698;-63
2021/01/05 04:49:59;;;;;;;42.63;17.33;;;;;;;1.04;87.82;100957.50;5028245;28;20206;-63
2021/01/05 04:52:33;;;;;;;37.10;17.23;;;;;;;1.03;87.75;100960.16;5005423;28;20577;-62
2021/01/05 04:55:05;;;;;;;45.33;18.00;;;;;;;1.02;87.87;100959.31;5029605;28;20271;-63
2021/01/05 04:57:34;;;;;;;31.80;16.73;;;;;;;1.01;87.92;100961.94;5030247;28;20207;-63
2021/01/05 05:00:06;;;;;;;41.30;17.67;;;;;;;1.00;87.99;100965.47;5017403;28;20202;-64
2021/01/05 05:02:47;;;;;;;40.17;15.90;;;;;;;0.97;88.05;100960.28;5029195;28;20217;-64
2021/01/05 05:05:36;;;;;;;30.83;15.73;;;;;;;0.97;87.72;100966.38;5029657;28;20373;-61
2021/01/05 05:08:22;;;;;;;38.90;16.33;;;;;;;0.98;87.80;100964.63;5017370;28;20232;-63
2021/01/05 05:10:52;;;;;;;39.67;16.90;;;;;;;0.98;87.81;100964.63;5020237;28;20645;-63
2021/01/05 05:13:28;;;;;;;41.73;18.30;;;;;;;0.97;88.04;100969.00;5021285;28;20206;-63
2021/01/05 05:16:03;;;;;;;42.50;18.70;;;;;;;0.96;87.94;100959.41;5029758;28;20217;-63
2021/01/05 05:18:35;;;;;;;35.43;15.17;;;;;;;0.94;88.03;100961.19;5028677;28;20624;-63
2021/01/05 05:21:20;;;;;;;33.87;15.67;;;;;;;0.96;87.74;100956.78;5029721;28;20214;-64
2021/01/05 05:23:57;;;;;;;34.53;16.27;;;;;;;0.94;87.74;100957.69;5029270;28;20218;-64
2021/01/05 05:26:31;;;;;;;31.70;15.03;;;;;;;0.95;87.80;100962.06;5033900;28;20228;-63
2021/01/05 05:29:01;;;;;;;39.17;17.07;;;;;;;0.94;88.25;100965.56;5031067;28;20206;-64
2021/01/05 05:31:31;;;;;;;37.57;16.17;;;;;;;0.94;87.98;100971.69;5031700;28;20678;-64
2021/01/05 05:33:59;;;;;;;36.03;16.77;;;;;;;0.94;87.85;100961.19;5031515;28;20702;-64
2021/01/05 05:36:51;;;;;;;36.10;17.13;;;;;;;0.95;87.97;100969.91;5030782;28;20210;-64
2021/01/05 05:39:44;;;;;;;33.43;17.03;;;;;;;0.94;88.52;100958.56;5031421;28;20210;-64
2021/01/05 05:42:26;;;;;;;39.43;18.33;;;;;;;0.95;87.79;100967.28;5027356;28;20623;-63
2021/01/05 05:44:59;;;;;;;36.33;17.17;;;;;;;0.94;88.06;100965.56;5032828;28;20232;-64
2021/01/05 05:47:30;;;;;;;38.97;17.40;;;;;;;0.94;88.07;100961.19;5032312;28;20272;-65
2021/01/05 05:50:03;;;;;;;38.23;17.20;;;;;;;0.92;87.98;100965.59;5031921;28;20206;-63
2021/01/05 05:52:35;;;;;;;37.57;16.77;;;;;;;0.93;88.18;100963.84;5030332;28;20202;-62
2021/01/05 05:55:06;;;;;;;38.17;15.67;;;;;;;0.93;88.02;100964.69;5032063;28;20308;-64
2021/01/05 05:57:40;;;;;;;35.27;16.73;;;;;;;0.94;88.06;100973.44;5032529;28;20198;-64
2021/01/05 06:00:20;;;;;;;33.57;16.83;;;;;;;0.94;88.28;100969.06;5032450;28;20243;-63
2021/01/05 06:02:46;;;;;;;40.03;15.77;;;;;;;0.94;88.26;100966.44;5028117;28;20686;-64
2021/01/05 06:05:24;;;;;;;36.27;16.40;;;;;;;0.94;88.17;100976.06;5027800;28;20244;-63
2021/01/05 06:07:51;;;;;;;37.33;17.03;;;;;;;0.93;88.18;100975.19;5032380;28;21367;-63
2021/01/05 06:10:17;;;;;;;36.37;15.70;;;;;;;0.94;88.28;100969.06;5032200;28;20475;-64
2021/01/05 06:12:44;;;;;;;35.70;15.13;;;;;;;0.95;88.25;100983.03;5030639;28;20198;-64
2021/01/05 06:15:11;;;;;;;32.80;15.17;;;;;;;0.95;88.29;100985.66;5018384;28;20295;-64
2021/01/05 06:17:37;;;;;;;37.07;16.77;;;;;;;0.95;88.51;100978.66;5033654;28;20225;-64
2021/01/05 06:20:04;;;;;;;31.80;15.43;;;;;;;0.96;88.34;100990.88;5030277;28;20581;-63
2021/01/05 06:22:30;;;;;;;29.90;14.43;;;;;;;0.97;88.24;100994.38;5033399;28;20233;-64
2021/01/05 06:24:56;;;;;;;31.63;14.13;;;;;;;0.98;88.28;100989.09;5030182;28;20226;-62
2021/01/05 06:27:22;;;;;;;28.67;13.23;;;;;;;0.98;88.20;100990.84;5018614;28;20230;-64
2021/01/05 06:29:49;;;;;;;25.37;12.53;;;;;;;0.98;88.05;100982.97;5029803;28;20689;-65
2021/01/05 06:32:16;;;;;;;25.43;12.77;;;;;;;0.98;88.21;100991.72;5017361;28;20203;-62
2021/01/05 06:34:42;;;;;;;28.73;14.57;;;;;;;0.99;88.18;100995.19;5025345;28;20225;-63
2021/01/05 06:37:08;;;;;;;31.17;14.53;;;;;;;1.00;88.54;100999.56;5031022;28;20228;-65
2021/01/05 06:39:34;;;;;;;24.50;12.83;;;;;;;1.01;88.23;100993.41;5031435;28;20210;-63
2021/01/05 06:42:00;;;;;;;29.57;14.00;;;;;;;1.00;88.32;100994.31;5030373;28;20218;-62
2021/01/05 06:44:26;;;;;;;23.70;12.93;;;;;;;1.01;88.22;100989.03;5030694;28;20234;-64
2021/01/05 06:46:54;;;;;;;30.03;14.77;;;;;;;1.02;88.64;100995.16;5032944;28;20706;-63
2021/01/05 06:49:20;;;;;;;28.30;14.40;;;;;;;1.02;88.08;100990.78;5030780;28;20210;-64
2021/01/05 06:51:46;;;;;;;26.13;13.03;;;;;;;1.02;88.24;100987.28;5031844;28;20202;-63
2021/01/05 06:54:12;;;;;;;21.77;12.87;;;;;;;1.01;88.20;100982.94;5031041;28;20226;-64
2021/01/05 06:56:49;;;;;;;27.93;13.47;;;;;;;1.02;88.61;101000.41;5030799;28;20208;-63
2021/01/05 06:59:15;;;;;;;25.97;12.33;;;;;;;1.02;88.43;100988.16;5032115;28;20210;-63
2021/01/05 07:01:41;;;;;;;25.83;12.57;;;;;;;1.02;88.05;100988.16;5016185;28;20203;-65
2021/01/05 07:04:08;;;;;;;28.50;13.40;;;;;;;1.02;88.38;100996.03;5026617;28;20231;-64
2021/01/05 07:06:34;;;;;;;23.40;12.93;;;;;;;1.02;88.42;100997.78;5030446;28;20225;-64
2021/01/05 07:09:00;;;;;;;25.20;13.33;;;;;;;1.02;88.10;101001.25;5031341;28;20281;-63
2021/01/05 07:11:26;;;;;;;26.77;12.93;;;;;;;1.01;88.09;100994.28;5030475;28;20198;-63
2021/01/05 07:13:52;;;;;;;24.60;12.13;;;;;;;1.01;88.21;100999.53;5030429;28;20344;-65
2021/01/05 07:16:18;;;;;;;27.60;13.43;;;;;;;1.03;88.08;101002.13;5031350;28;20221;-63
2021/01/05 07:18:44;;;;;;;23.17;12.37;;;;;;;1.03;88.34;101005.63;5030808;28;20209;-63
2021/01/05 07:21:11;;;;;;;23.63;12.03;;;;;;;1.04;88.19;101002.09;5025565;28;20686;-63
2021/01/05 07:23:37;;;;;;;22.93;13.03;;;;;;;1.06;87.82;101009.09;5031216;28;20218;-65
2021/01/05 07:26:03;;;;;;;25.23;12.87;;;;;;;1.06;88.00;101009.94;5029442;28;20655;-63
2021/01/05 07:28:29;;;;;;;24.43;12.23;;;;;;;1.08;88.38;101015.13;5030263;28;20202;-63
2021/01/05 07:30:55;;;;;;;24.43;12.73;;;;;;;1.08;88.13;101016.00;5027090;28;20203;-62
2021/01/05 07:33:21;;;;;;;24.67;11.50;;;;;;;1.09;87.98;101017.72;5027832;28;20210;-64
2021/01/05 07:35:47;;;;;;;20.60;11.37;;;;;;;1.09;88.34;101027.34;5027532;28;21520;-64
2021/01/05 07:38:14;;;;;;;27.80;12.70;;;;;;;1.10;88.21;101021.22;5030051;28;20232;-63
2021/01/05 07:40:40;;;;;;;25.23;12.87;;;;;;;1.10;88.33;101029.94;5030558;28;20210;-63
2021/01/05 07:43:06;;;;;;;24.57;13.17;;;;;;;1.10;88.33;101022.09;5027227;28;20233;-63
2021/01/05 07:45:32;;;;;;;23.03;11.73;;;;;;;1.11;88.40;101036.94;5024999;28;20260;-64
2021/01/05 07:47:58;;;;;;;25.60;12.43;;;;;;;1.11;88.21;101036.06;5028219;28;20275;-63
2021/01/05 07:50:26;;;;;;;26.77;12.70;;;;;;;1.11;87.99;101031.69;5028527;28;20201;-64
2021/01/05 07:52:52;;;;;;;24.43;11.83;;;;;;;1.11;88.13;101030.81;5016043;28;20202;-63
2021/01/05 07:55:21;;;;;;;23.60;12.43;;;;;;;1.12;88.04;101032.56;5042245;22;20235;-66
2021/01/05 07:57:47;;;;;;;27.77;13.07;;;;;;;1.12;88.24;101030.78;5032800;28;20208;-66
2021/01/05 08:00:16;;;;;;;24.43;13.53;;;;;;;1.11;87.96;101031.69;5028521;28;20214;-67
2021/01/05 08:02:42;;;;;;;25.07;13.43;;;;;;;1.11;88.06;101021.19;5028954;28;20198;-66
2021/01/05 08:05:11;;;;;;;27.77;13.73;;;;;;;1.14;87.92;101036.00;5032673;28;20225;-66
2021/01/05 08:07:37;;;;;;;25.20;12.57;;;;;;;1.13;88.45;101022.03;5046753;28;20256;-66
2021/01/05 08:10:04;;;;;;;27.67;12.80;;;;;;;1.11;88.48;101021.19;5047166;28;20213;-66
2021/01/05 08:12:31;;;;;;;25.50;12.73;;;;;;;1.11;88.57;101025.56;5050422;28;20267;-66
2021/01/05 08:14:57;;;;;;;27.90;13.73;;;;;;;1.12;88.06;101028.16;5053328;28;20225;-66
2021/01/05 08:17:23;;;;;;;28.57;13.27;;;;;;;1.13;87.95;101029.91;5048466;28;20247;-67
2021/01/05 08:19:49;;;;;;;26.13;11.77;;;;;;;1.14;88.07;101030.75;5039502;28;20198;-66
2021/01/05 08:22:15;;;;;;;24.83;12.43;;;;;;;1.14;87.98;101036.88;5049490;28;20304;-66
2021/01/05 08:24:42;;;;;;;28.13;13.27;;;;;;;1.16;88.56;101028.97;5050453;28;20321;-66
2021/01/05 08:27:08;;;;;;;27.60;12.87;;;;;;;1.16;87.81;101031.59;5047388;28;20224;-66
2021/01/05 08:29:36;;;;;;;27.80;13.20;;;;;;;1.15;87.72;101027.25;5043770;28;20279;-66
2021/01/05 08:32:03;;;;;;;28.77;13.63;;;;;;;1.15;88.38;101029.88;5044961;28;20695;-66
2021/01/05 08:34:30;;;;;;;28.57;13.27;;;;;;;1.16;88.33;101029.84;5049554;28;20232;-67
2021/01/05 08:36:58;;;;;;;26.57;12.73;;;;;;;1.11;88.58;101034.31;5049537;28;20212;-67
2021/01/05 08:39:24;;;;;;;26.13;12.33;;;;;;;1.12;88.02;101027.31;5050130;28;20249;-67
2021/01/05 08:41:53;;;;;;;33.63;14.83;;;;;;;1.13;88.08;101032.53;5042098;28;20205;-66
2021/01/05 08:44:19;;;;;;;27.80;13.33;;;;;;;1.13;88.04;101031.66;5046725;28;21180;-66
2021/01/05 08:46:46;;;;;;;27.33;12.53;;;;;;;1.12;88.50;101037.78;5052119;28;20701;-66
2021/01/05 08:49:13;;;;;;;32.50;14.40;;;;;;;1.13;88.58;101042.16;5043276;28;20197;-66
2021/01/05 08:51:39;;;;;;;34.23;13.53;;;;;;;1.14;88.36;101036.88;5045731;28;20217;-66
2021/01/05 08:54:05;;;;;;;29.73;13.23;;;;;;;1.15;88.38;101040.38;5046773;28;20202;-66
2021/01/05 08:56:31;;;;;;;26.80;13.00;;;;;;;1.15;88.39;101038.63;5049382;28;20244;-66
2021/01/05 08:58:58;;;;;;;26.80;13.43;;;;;;;1.16;88.55;101035.09;5051042;28;20206;-66
2021/01/05 09:01:24;;;;;;;31.90;13.17;;;;;;;1.17;88.41;101036.81;5052235;28;20693;-65
2021/01/05 09:03:51;;;;;;;31.70;14.07;;;;;;;1.18;88.51;101038.56;5052651;28;20205;-66
2021/01/05 09:06:21;;;;;;;30.67;14.00;;;;;;;1.19;88.46;101036.81;5053708;28;20247;-65
2021/01/05 09:08:48;;;;;;;31.93;13.07;;;;;;;1.19;88.51;101045.53;5050488;28;20219;-66
2021/01/05 09:11:19;;;;;;;34.70;14.43;;;;;;;1.21;88.72;101037.63;5056326;28;20205;-67
2021/01/05 09:13:45;;;;;;;32.23;14.57;;;;;;;1.21;88.55;101043.75;5055705;28;20197;-66
2021/01/05 09:16:19;;;;;;;32.77;14.10;;;;;;;1.22;88.86;101045.47;5047389;28;20221;-66
2021/01/05 09:18:45;;;;;;;33.17;14.23;;;;;;;1.23;88.38;101051.59;5050319;28;20701;-66
2021/01/05 09:21:12;;;;;;;34.77;13.17;;;;;;;1.24;88.46;101045.47;5057933;28;20678;-66
2021/01/05 09:23:39;;;;;;;33.30;13.47;;;;;;;1.24;88.69;101048.94;5055353;28;20300;-67
2021/01/05 09:26:08;;;;;;;39.07;13.30;;;;;;;1.26;88.56;101049.75;5050188;28;20229;-66
2021/01/05 09:28:34;;;;;;;32.13;12.67;;;;;;;1.26;88.40;101043.66;5045333;28;20226;-66
2021/01/05 09:31:00;;;;;;;33.67;14.60;;;;;;;1.28;89.08;101050.59;5053184;28;20210;-65
2021/01/05 09:33:26;;;;;;;36.87;14.47;;;;;;;1.28;88.46;101050.59;5046466;28;20205;-66
2021/01/05 09:35:52;;;;;;;34.03;14.47;;;;;;;1.30;88.28;101050.56;5052923;28;20233;-66
2021/01/05 09:38:19;;;;;;;32.90;14.10;;;;;;;1.32;88.77;101057.53;5053468;28;20207;-67
2021/01/05 09:40:45;;;;;;;35.17;14.73;;;;;;;1.32;88.77;101052.28;5052820;28;20206;-67
2021/01/05 09:43:12;;;;;;;35.20;15.27;;;;;;;1.35;88.50;101053.97;5055541;28;20202;-66
2021/01/05 09:45:40;;;;;;;35.23;15.33;;;;;;;1.37;88.70;101054.81;5053713;28;20235;-66
2021/01/05 09:48:07;;;;;;;36.90;14.43;;;;;;;1.35;88.80;101046.97;5051036;28;20240;-66
2021/01/05 09:50:34;;;;;;;34.50;15.53;;;;;;;1.35;89.05;101049.59;5048915;28;20759;-65
2021/01/05 09:53:00;;;;;;;39.53;14.97;;;;;;;1.37;88.26;101044.31;5044225;28;20291;-66
2021/01/05 09:55:27;;;;;;;29.20;14.80;;;;;;;1.37;88.52;101057.44;5051485;28;20356;-66
2021/01/05 09:57:53;;;;;;;36.30;14.10;;;;;;;1.38;88.54;101046.06;5058868;28;20201;-66
2021/01/05 10:00:21;;;;;;;43.77;17.10;;;;;;;1.38;89.12;101046.91;5050169;28;20212;-65
2021/01/05 10:02:47;;;;;;;38.47;17.27;;;;;;;1.39;88.92;101042.53;5048055;28;20666;-66
2021/01/05 10:05:14;;;;;;;31.13;15.90;;;;;;;1.41;89.03;101040.75;5053175;28;20270;-65
2021/01/05 10:07:40;;;;;;;41.47;16.23;;;;;;;1.43;88.91;101040.72;5053466;28;20228;-67
2021/01/05 10:10:07;;;;;;;39.20;16.07;;;;;;;1.43;88.82;101045.97;5046799;28;20213;-65
2021/01/05 10:12:34;;;;;;;30.90;15.40;;;;;;;1.45;88.72;101038.91;5055512;28;20301;-66
2021/01/05 10:15:02;;;;;;;34.00;15.70;;;;;;;1.46;88.54;101040.63;5050569;28;20237;-67
2021/01/05 10:17:28;;;;;;;41.77;16.97;;;;;;;1.47;89.14;101039.75;5051896;28;20237;-66
2021/01/05 10:19:54;;;;;;;35.47;15.77;;;;;;;1.48;88.68;101046.72;5046858;28;20202;-66
2021/01/05 10:22:20;;;;;;;35.83;16.90;;;;;;;1.49;88.74;101037.97;5051238;28;20578;-66
2021/01/05 10:24:48;;;;;;;37.67;17.23;;;;;;;1.48;88.44;101042.34;5051146;28;20226;-66
2021/01/05 10:27:14;;;;;;;38.23;16.77;;;;;;;1.51;88.83;101049.28;5045140;28;20266;-65
2021/01/05 10:29:41;;;;;;;32.50;16.10;;;;;;;1.51;88.68;101039.66;5053086;28;20212;-65
2021/01/05 10:32:07;;;;;;;35.67;16.23;;;;;;;1.53;89.11;101040.50;5048830;28;20198;-66
2021/01/05 10:34:33;;;;;;;36.83;16.90;;;;;;;1.53;89.01;101037.88;5046815;28;20681;-64
2021/01/05 10:37:00;;;;;;;35.27;16.57;;;;;;;1.55;89.02;101043.09;5054962;28;20204;-66
2021/01/05 10:39:28;;;;;;;33.90;15.30;;;;;;;1.55;88.45;101033.47;5047775;28;20197;-64
2021/01/05 10:41:54;;;;;;;28.60;14.10;;;;;;;1.56;88.42;101031.69;5044852;28;20209;-63
2021/01/05 10:44:22;;;;;;;32.23;16.50;;;;;;;1.56;88.63;101029.94;5057516;28;20586;-64
2021/01/05 10:46:50;;;;;;;32.37;16.07;;;;;;;1.57;88.40;101033.44;5052236;28;20242;-65
2021/01/05 10:49:17;;;;;;;34.47;16.90;;;;;;;1.58;88.48;101033.41;5046158;28;20282;-67
2021/01/05 10:51:47;;;;;;;38.10;17.43;;;;;;;1.60;88.74;101031.63;5050632;28;20205;-67
2021/01/05 10:54:15;;;;;;;34.13;17.20;;;;;;;1.62;88.43;101029.78;5052608;28;20349;-66
2021/01/05 10:56:41;;;;;;;34.03;16.77;;;;;;;1.64;88.60;101028.00;5050022;28;20218;-66
2021/01/05 10:59:07;;;;;;;38.07;16.87;;;;;;;1.64;88.56;101032.38;5056040;28;20225;-66
2021/01/05 11:01:33;;;;;;;31.30;15.63;;;;;;;1.66;88.74;101038.47;5048649;28;20209;-66
2021/01/05 11:04:00;;;;;;;34.90;15.67;;;;;;;1.66;88.56;101038.47;5050806;28;20209;-66
2021/01/05 11:06:26;;;;;;;29.30;15.07;;;;;;;1.66;88.27;101031.47;5054073;28;20229;-66
2021/01/05 11:08:52;;;;;;;28.23;14.47;;;;;;;1.67;88.85;101033.19;5050599;28;20198;-66
2021/01/05 11:11:23;;;;;;;22.33;13.47;;;;;;;1.67;88.79;101029.72;5052086;28;20258;-66
2021/01/05 11:13:49;;;;;;;24.60;13.67;;;;;;;1.68;88.29;101034.06;5049700;28;20705;-67
2021/01/05 11:16:15;;;;;;;35.70;15.50;;;;;;;1.68;88.84;101034.06;5059414;28;20697;-66
2021/01/05 11:18:41;;;;;;;31.43;14.40;;;;;;;1.69;88.74;101030.53;5052430;28;20300;-67
2021/01/05 11:21:11;;;;;;;30.13;15.43;;;;;;;1.67;88.71;101024.47;5061282;28;20197;-65
2021/01/05 11:23:37;;;;;;;28.80;13.70;;;;;;;1.68;88.63;101023.56;5051266;28;20316;-65
2021/01/05 11:26:06;;;;;;;31.60;14.73;;;;;;;1.68;88.68;101019.19;5062058;28;20263;-67
2021/01/05 11:28:32;;;;;;;29.23;15.03;;;;;;;1.69;88.57;101018.28;5048148;28;20221;-64